createdAt,value
2022-10-18T00:02:08.419Z,15.90
2022-10-18T00:06:14.993Z,15.90
2022-10-18T00:10:18.014Z,15.90
2022-10-18T00:14:20.892Z,15.90
2022-10-18T00:18:25.615Z,15.80
2022-10-18T00:22:28.763Z,15.80
2022-10-18T00:26:32.616Z,15.80
2022-10-18T00:30:35.441Z,15.70
2022-10-18T00:34:39.889Z,15.60
2022-10-18T00:38:43.388Z,15.60
2022-10-18T00:42:46.199Z,15.60
2022-10-18T00:46:50.414Z,15.60
2022-10-18T00:50:54.689Z,15.70
2022-10-18T00:54:58.546Z,15.70
2022-10-18T00:59:01.612Z,15.70
2022-10-18T01:03:04.435Z,15.70
2022-10-18T01:07:27.042Z,15.70
2022-10-18T01:11:59.686Z,15.70
2022-10-18T01:16:21.180Z,15.60
2022-10-18T01:21:08.849Z,15.60
2022-10-18T01:25:29.325Z,15.60
2022-10-18T01:29:44.497Z,15.60
2022-10-18T01:33:52.354Z,15.60
2022-10-18T01:37:58.523Z,15.60
2022-10-18T01:42:06.241Z,15.60
2022-10-18T01:46:10.418Z,15.60
2022-10-18T01:50:14.838Z,15.50
2022-10-18T01:54:22.925Z,15.50
2022-10-18T01:58:32.391Z,15.50
2022-10-18T02:02:44.392Z,15.40
2022-10-18T02:06:54.212Z,15.40
2022-10-18T02:11:02.059Z,15.40
2022-10-18T02:15:07.194Z,15.40
2022-10-18T02:19:14.731Z,15.30
2022-10-18T02:23:24.142Z,15.30
2022-10-18T02:27:27.226Z,15.30
2022-10-18T02:31:36.242Z,15.30
2022-10-18T02:35:43.028Z,15.20
2022-10-18T02:39:49.928Z,15.20
2022-10-18T02:43:52.907Z,15.20
2022-10-18T02:47:55.705Z,15.20
2022-10-18T02:51:58.582Z,15.20
2022-10-18T02:56:03.411Z,15.10
2022-10-18T03:00:07.865Z,15.10
2022-10-18T03:04:11.086Z,15.10
2022-10-18T03:08:13.893Z,15.10
2022-10-18T03:12:18.208Z,15.10
2022-10-18T03:16:21.001Z,15.10
2022-10-18T03:20:23.827Z,15.10
2022-10-18T03:24:26.698Z,15.10
2022-10-18T03:28:30.914Z,15.10
2022-10-18T03:32:33.839Z,15.10
2022-10-18T03:36:38.439Z,15.10
2022-10-18T03:40:41.304Z,15.10
2022-10-18T03:44:45.461Z,15.10
2022-10-18T03:48:48.248Z,15.10
2022-10-18T03:52:51.068Z,15.10
2022-10-18T03:56:53.868Z,15.10
2022-10-18T04:00:58.096Z,15.10
2022-10-18T04:05:00.868Z,15.00
2022-10-18T04:09:06.516Z,15.00
2022-10-18T04:13:12.486Z,15.00
2022-10-18T04:17:16.737Z,15.00
2022-10-18T04:21:19.630Z,15.00
2022-10-18T04:25:22.968Z,15.00
2022-10-18T04:29:25.875Z,15.00
2022-10-18T04:33:30.170Z,15.00
2022-10-18T04:37:33.506Z,15.00
2022-10-18T04:41:36.526Z,15.00
2022-10-18T04:45:39.431Z,15.00
2022-10-18T04:49:43.668Z,14.90
2022-10-18T04:53:46.716Z,14.90
2022-10-18T04:57:49.554Z,14.90
2022-10-18T05:01:52.470Z,14.90
2022-10-18T05:06:01.721Z,14.90
2022-10-18T05:10:05.838Z,14.90
2022-10-18T05:14:10.079Z,14.90
2022-10-18T05:18:13.030Z,14.90
2022-10-18T05:22:17.200Z,14.90
2022-10-18T05:26:20.002Z,14.90
2022-10-18T05:30:22.798Z,14.90
2022-10-18T05:34:27.310Z,14.90
2022-10-18T05:38:31.799Z,14.90
2022-10-18T05:42:34.852Z,14.90
2022-10-18T05:46:37.675Z,14.90
2022-10-18T05:50:40.614Z,14.90
2022-10-18T05:54:44.778Z,14.90
2022-10-18T05:58:51.481Z,14.90
2022-10-18T06:02:58.229Z,14.80
2022-10-18T06:07:03.117Z,14.90
2022-10-18T06:11:10.127Z,14.90
2022-10-18T06:15:12.954Z,14.90
2022-10-18T06:19:15.769Z,14.80
2022-10-18T06:23:18.589Z,14.80
2022-10-18T06:27:22.743Z,14.90
2022-10-18T06:31:25.665Z,14.90
2022-10-18T06:35:28.473Z,14.90
2022-10-18T06:39:31.259Z,14.90
2022-10-18T06:43:35.958Z,15.00
2022-10-18T06:47:38.758Z,14.90
2022-10-18T06:51:42.258Z,15.00
2022-10-18T06:55:46.706Z,14.90
2022-10-18T06:59:51.924Z,15.00
2022-10-18T07:03:55.675Z,15.00
2022-10-18T07:07:58.514Z,15.00
2022-10-18T07:12:01.367Z,15.00
2022-10-18T07:16:07.961Z,15.00
2022-10-18T07:20:11.487Z,15.10
2022-10-18T07:24:14.478Z,15.10
2022-10-18T07:28:17.292Z,15.10
2022-10-18T07:32:21.429Z,15.10
2022-10-18T07:36:24.640Z,15.20
2022-10-18T07:40:27.472Z,15.20
2022-10-18T07:44:30.281Z,15.30
2022-10-18T07:48:34.446Z,15.30
2022-10-18T07:52:37.256Z,15.40
2022-10-18T07:56:40.045Z,15.40
2022-10-18T08:00:42.984Z,15.40
2022-10-18T08:04:47.423Z,15.50
2022-10-18T08:08:50.557Z,15.50
2022-10-18T08:12:55.395Z,15.50
2022-10-18T08:16:58.222Z,15.50
2022-10-18T08:21:03.022Z,15.50
2022-10-18T08:25:06.522Z,15.50
2022-10-18T08:29:21.897Z,15.50
2022-10-18T08:33:26.839Z,15.50
2022-10-18T08:37:31.147Z,15.50
2022-10-18T08:41:51.975Z,15.50
2022-10-18T08:45:56.206Z,15.50
2022-10-18T08:50:03.717Z,15.50
2022-10-18T08:54:13.196Z,15.60
2022-10-18T08:58:20.218Z,15.60
2022-10-18T09:02:39.516Z,15.60
2022-10-18T09:06:50.016Z,15.60
2022-10-18T09:11:07.899Z,15.60
2022-10-18T09:15:17.277Z,15.70
2022-10-18T09:19:30.016Z,15.70
2022-10-18T09:23:44.032Z,15.90
2022-10-18T09:27:53.696Z,16.00
2022-10-18T09:32:04.602Z,16.00
2022-10-18T09:36:10.426Z,16.10
2022-10-18T09:40:19.071Z,16.10
2022-10-18T09:44:26.573Z,16.10
2022-10-18T09:48:33.972Z,16.20
2022-10-18T09:52:42.222Z,16.20
2022-10-18T09:56:49.859Z,16.30
2022-10-18T10:04:58.031Z,16.30
2022-10-18T10:09:06.334Z,16.40
2022-10-18T10:13:17.141Z,16.50
2022-10-18T10:17:27.385Z,16.70
2022-10-18T10:21:30.440Z,16.90
2022-10-18T10:25:36.225Z,17.00
2022-10-18T10:29:57.350Z,17.10
2022-10-18T10:34:04.488Z,17.20
2022-10-18T10:38:08.135Z,17.20
2022-10-18T10:42:15.569Z,17.10
2022-10-18T10:46:19.978Z,17.10
2022-10-18T10:50:28.837Z,17.10
2022-10-18T10:54:35.845Z,17.10
2022-10-18T10:58:40.926Z,17.10
2022-10-18T11:02:54.310Z,17.00
2022-10-18T11:07:17.623Z,17.00
2022-10-18T11:11:26.721Z,17.00
2022-10-18T11:15:36.351Z,17.00
2022-10-18T11:19:50.965Z,17.00
2022-10-18T11:23:57.098Z,17.00
2022-10-18T11:28:09.479Z,17.10
2022-10-18T11:32:22.301Z,17.20
2022-10-18T11:36:33.974Z,17.30
2022-10-18T11:40:54.866Z,17.40
2022-10-18T11:45:07.843Z,17.50
2022-10-18T11:49:33.086Z,17.50
2022-10-18T11:53:47.183Z,17.40
2022-10-18T11:58:03.259Z,17.30
2022-10-18T12:02:29.380Z,17.30
2022-10-18T12:06:35.674Z,17.30
2022-10-18T12:10:52.650Z,17.30
2022-10-18T12:15:14.238Z,17.40
2022-10-18T12:19:25.152Z,17.60
2022-10-18T12:23:39.037Z,17.70
2022-10-18T12:27:49.844Z,17.80
2022-10-18T12:31:57.675Z,17.90
2022-10-18T12:36:12.497Z,18.10
2022-10-18T12:40:21.281Z,18.40
2022-10-18T12:44:31.405Z,18.40
2022-10-18T12:48:38.696Z,18.40
2022-10-18T12:52:42.139Z,18.40
2022-10-18T12:56:46.733Z,18.20
2022-10-18T13:01:03.776Z,17.90
2022-10-18T13:05:52.016Z,17.80
2022-10-18T13:10:29.091Z,17.70
2022-10-18T13:15:05.717Z,17.70
2022-10-18T13:19:22.593Z,17.80
2022-10-18T13:23:39.453Z,18.10
2022-10-18T13:27:49.293Z,18.20
2022-10-18T13:32:00.616Z,18.00
2022-10-18T13:36:06.234Z,17.90
2022-10-18T13:40:17.046Z,17.90
2022-10-18T13:44:30.393Z,18.10
2022-10-18T13:48:51.806Z,18.20
2022-10-18T13:53:21.198Z,18.20
2022-10-18T13:57:39.818Z,18.20
2022-10-18T14:01:54.312Z,18.10
2022-10-18T14:06:04.548Z,18.00
2022-10-18T14:10:15.766Z,18.00
2022-10-18T14:14:26.241Z,18.10
2022-10-18T14:18:33.390Z,18.00
2022-10-18T14:22:41.571Z,18.00
2022-10-18T14:26:44.377Z,18.00
2022-10-18T14:30:55.669Z,17.90
2022-10-18T14:35:30.657Z,17.80
2022-10-18T14:39:28.935Z,17.80
2022-10-18T14:43:31.770Z,17.80
2022-10-18T14:51:00.407Z,17.70
2022-10-18T14:55:03.823Z,17.60
2022-10-18T14:59:16.026Z,17.60
2022-10-18T15:03:19.642Z,17.50
2022-10-18T15:07:24.750Z,17.50
2022-10-18T15:11:29.251Z,17.50
2022-10-18T15:15:33.833Z,17.40
2022-10-18T15:19:39.881Z,17.40
2022-10-18T15:23:44.042Z,17.40
2022-10-18T15:27:49.100Z,17.30
2022-10-18T15:31:52.626Z,17.30
2022-10-18T15:35:55.746Z,17.30
2022-10-18T15:40:35.324Z,17.30
2022-10-18T15:44:50.867Z,17.20
2022-10-18T15:48:53.803Z,17.20
2022-10-18T15:52:56.885Z,17.00
2022-10-18T15:56:59.842Z,16.80
2022-10-18T16:01:04.931Z,16.60
2022-10-18T16:05:13.507Z,16.20
2022-10-18T16:09:18.483Z,16.10
2022-10-18T16:13:21.523Z,15.90
2022-10-18T16:17:25.717Z,15.70
2022-10-18T16:21:31.178Z,15.50
2022-10-18T16:25:33.968Z,15.30
2022-10-18T16:29:37.031Z,15.10
2022-10-18T16:33:41.180Z,14.90
2022-10-18T16:37:43.997Z,14.80
2022-10-18T16:41:47.443Z,14.60
2022-10-18T16:45:51.069Z,14.50
2022-10-18T16:49:55.227Z,14.30
2022-10-18T16:53:58.481Z,14.20
2022-10-18T16:58:04.465Z,14.00
2022-10-18T17:02:09.167Z,14.00
2022-10-18T17:06:17.318Z,13.90
2022-10-18T17:10:24.145Z,13.70
2022-10-18T17:14:27.021Z,13.70
2022-10-18T17:18:30.629Z,13.60
2022-10-18T17:22:34.898Z,13.40
2022-10-18T17:26:37.738Z,13.40
2022-10-18T17:30:40.583Z,13.30
2022-10-18T17:34:43.422Z,13.20
2022-10-18T17:38:50.901Z,13.10
2022-10-18T17:42:54.712Z,13.10
2022-10-18T17:46:57.566Z,13.00
2022-10-18T17:51:01.501Z,12.90
2022-10-18T17:55:06.278Z,12.90
2022-10-18T17:59:09.702Z,12.80
2022-10-18T18:03:13.411Z,12.70
2022-10-18T18:07:16.258Z,12.60
2022-10-18T18:11:20.510Z,12.50
2022-10-18T18:15:23.426Z,12.40
2022-10-18T18:19:26.283Z,12.40
2022-10-18T18:23:29.125Z,12.30
2022-10-18T18:27:33.414Z,12.30
2022-10-18T18:31:40.165Z,12.20
2022-10-18T18:35:44.167Z,12.10
2022-10-18T18:39:46.966Z,12.00
2022-10-18T18:43:54.443Z,12.00
2022-10-18T18:47:57.286Z,12.00
2022-10-18T18:52:00.578Z,11.90
2022-10-18T18:56:04.511Z,11.80
2022-10-18T19:00:10.466Z,11.80
2022-10-18T19:04:13.371Z,11.70
2022-10-18T19:08:16.184Z,11.70
2022-10-18T19:12:21.347Z,11.60
2022-10-18T19:16:28.410Z,11.50
2022-10-18T19:20:32.335Z,11.40
2022-10-18T19:24:35.350Z,11.40
2022-10-18T19:28:38.343Z,11.30
2022-10-18T19:32:42.540Z,11.30
2022-10-18T19:36:47.079Z,11.20
2022-10-18T19:40:53.616Z,11.20
2022-10-18T19:44:56.853Z,11.10
2022-10-18T19:49:01.211Z,11.00
2022-10-18T19:53:04.404Z,11.00
2022-10-18T19:57:07.536Z,11.00
2022-10-18T20:01:10.387Z,10.80
2022-10-18T20:05:14.680Z,10.80
2022-10-18T20:09:20.445Z,10.70
2022-10-18T20:13:23.659Z,10.70
2022-10-18T20:17:26.485Z,10.60
2022-10-18T20:21:32.926Z,10.60
2022-10-18T20:25:36.830Z,10.50
2022-10-18T20:29:39.689Z,10.40
2022-10-18T20:33:43.580Z,10.30
2022-10-18T20:37:49.511Z,10.30
2022-10-18T20:41:52.342Z,10.20
2022-10-18T20:45:57.575Z,10.20
2022-10-18T20:50:00.507Z,10.10
2022-10-18T20:58:13.724Z,10.00
2022-10-18T21:02:18.473Z,9.90
2022-10-18T21:06:22.910Z,9.90
2022-10-18T21:10:27.523Z,9.80
2022-10-18T21:14:30.661Z,9.80
2022-10-18T21:18:35.806Z,9.70
2022-10-18T21:22:38.651Z,9.70
2022-10-18T21:26:42.959Z,9.60
2022-10-18T21:30:45.938Z,9.60
2022-10-18T21:34:48.751Z,9.50
2022-10-18T21:38:51.837Z,9.40
2022-10-18T21:42:56.292Z,9.40
2022-10-18T21:46:59.211Z,9.40
2022-10-18T21:51:04.275Z,9.40
2022-10-18T21:55:08.103Z,9.30
2022-10-18T21:59:13.741Z,9.20
2022-10-18T22:03:16.590Z,9.20
2022-10-18T22:07:19.409Z,9.20
2022-10-18T22:11:25.637Z,9.10
2022-10-18T22:15:29.842Z,9.10
2022-10-18T22:19:32.655Z,9.00
2022-10-18T22:23:37.420Z,9.00
2022-10-18T22:27:40.239Z,8.90
2022-10-18T22:31:46.482Z,8.90
2022-10-18T22:35:50.309Z,8.90
2022-10-18T22:39:53.143Z,8.90
2022-10-18T22:43:58.431Z,8.90
2022-10-18T22:48:06.175Z,8.80
2022-10-18T22:52:09.055Z,8.70
2022-10-18T22:56:15.040Z,8.70
2022-10-18T23:00:18.031Z,8.60
2022-10-18T23:04:22.222Z,8.60
2022-10-18T23:08:25.583Z,8.60
2022-10-18T23:12:28.431Z,8.50
2022-10-18T23:16:31.584Z,8.40
2022-10-18T23:20:35.789Z,8.40
2022-10-18T23:24:38.592Z,8.30
2022-10-18T23:28:43.363Z,8.30
2022-10-18T23:32:46.207Z,8.30
2022-10-18T23:36:50.348Z,8.20
2022-10-18T23:40:53.162Z,8.20
2022-10-18T23:44:55.970Z,8.10
2022-10-18T23:48:58.782Z,8.10
2022-10-18T23:53:02.963Z,8.00
2022-10-18T23:57:05.913Z,8.00
